createdAt,value
2023-01-19T06:49:06.699Z,51.156063
2023-01-19T06:49:34.893Z,51.156105
2023-01-19T06:50:34.850Z,51.156170
2023-01-19T06:51:34.276Z,51.156120
2023-01-19T06:52:34.561Z,51.156113
2023-01-19T06:53:34.115Z,51.156071
2023-01-19T06:54:34.383Z,51.156075
2023-01-19T06:55:37.682Z,51.156048
2023-01-19T06:56:35.110Z,51.156033
2023-01-19T06:57:34.059Z,51.155998
2023-01-19T06:58:34.462Z,51.156075
2023-01-19T06:59:34.262Z,51.156086
2023-01-19T07:00:34.289Z,51.156139
2023-01-19T07:01:34.164Z,51.156261
2023-01-19T07:02:34.338Z,51.156124
2023-01-19T07:03:34.151Z,51.156090
2023-01-19T07:04:33.989Z,51.156101
2023-01-19T07:05:34.319Z,51.156086
2023-01-19T07:06:34.123Z,51.156082
2023-01-19T07:07:34.052Z,51.156101
2023-01-19T07:08:34.027Z,51.156097
2023-01-19T07:09:34.232Z,51.156078
2023-01-19T07:11:26.056Z,51.156101
2023-01-19T07:11:40.564Z,51.156113
2023-01-19T07:12:34.641Z,51.156090
2023-01-19T07:13:34.098Z,51.156082
2023-01-19T07:14:34.180Z,51.156078
2023-01-19T07:15:33.905Z,51.156029
2023-01-19T07:16:33.917Z,51.156086
2023-01-19T07:17:35.056Z,51.156097
2023-01-19T07:18:34.153Z,51.156094
2023-01-19T07:19:33.894Z,51.156097
2023-01-19T07:20:34.986Z,51.156116
2023-01-19T07:21:34.024Z,51.156132
2023-01-19T07:22:33.942Z,51.156105
2023-01-19T07:23:34.170Z,51.156109
2023-01-19T07:24:33.988Z,51.156090
2023-01-19T07:25:34.064Z,51.156116
2023-01-19T07:26:34.322Z,51.156113
2023-01-19T07:27:36.459Z,51.156132
2023-01-19T07:28:33.875Z,51.156113
2023-01-19T07:29:33.987Z,51.156097
2023-01-19T07:30:34.309Z,51.156109
2023-01-19T07:31:34.113Z,51.156120
2023-01-19T07:32:33.795Z,51.156105
2023-01-19T07:33:33.824Z,51.156094
2023-01-19T07:34:33.829Z,51.156086
2023-01-19T07:35:33.918Z,51.156094
2023-01-19T07:36:33.963Z,51.156094
2023-01-19T07:37:33.606Z,51.156071
2023-01-19T07:38:33.808Z,51.156113
2023-01-19T07:39:33.779Z,51.156136
2023-01-19T07:40:33.753Z,51.156136
2023-01-19T07:41:33.784Z,51.156082
2023-01-19T07:42:33.702Z,51.156097
2023-01-19T07:43:33.908Z,51.156055
2023-01-19T07:44:33.780Z,51.156116
2023-01-19T07:45:33.677Z,51.156139
2023-01-19T07:46:33.771Z,51.156040
2023-01-19T07:47:34.603Z,51.156055
2023-01-19T07:48:34.241Z,51.156136
2023-01-19T07:49:34.039Z,51.156105
2023-01-19T07:50:33.857Z,51.156109
2023-01-19T07:51:34.110Z,51.156097
2023-01-19T07:52:33.600Z,51.156090
2023-01-19T07:53:34.736Z,51.156090
2023-01-19T07:54:34.017Z,51.156090
2023-01-19T07:55:33.925Z,51.156071
2023-01-19T07:56:34.102Z,51.156105
2023-01-19T07:57:33.448Z,51.156075
2023-01-19T07:58:33.809Z,51.156086
2023-01-19T07:59:33.557Z,51.156174
2023-01-19T08:00:33.452Z,51.156178
2023-01-19T08:01:33.888Z,51.156151
2023-01-19T08:02:33.773Z,51.156136
2023-01-19T08:03:33.791Z,51.156082
2023-01-19T08:04:34.984Z,51.156155
2023-01-19T08:05:33.497Z,51.156158
2023-01-19T08:06:33.511Z,51.156128
2023-01-19T08:07:33.372Z,51.156132
2023-01-19T08:08:34.559Z,51.156113
2023-01-19T08:09:33.611Z,51.156147
2023-01-19T08:10:33.569Z,51.156124
2023-01-19T08:11:33.557Z,51.156109
2023-01-19T08:12:33.427Z,51.156124
2023-01-19T08:15:02.960Z,51.156105
2023-01-19T08:15:05.271Z,51.156105
2023-01-19T08:16:05.204Z,51.156113
2023-01-19T08:17:05.141Z,51.156151
2023-01-19T08:18:05.157Z,51.156139
2023-01-19T08:19:05.044Z,51.156116
2023-01-19T08:20:05.272Z,51.156124
2023-01-19T08:21:05.103Z,51.156113
2023-01-19T08:22:05.143Z,51.156128
2023-01-19T08:23:05.239Z,51.156116
2023-01-19T08:24:05.252Z,51.156155
2023-01-19T08:25:05.046Z,51.156147
2023-01-19T08:26:05.034Z,51.156128
2023-01-19T08:27:06.041Z,51.156143
2023-01-19T08:28:05.133Z,51.156136
2023-01-19T08:29:05.032Z,51.156136
2023-01-19T08:30:05.617Z,51.156143
2023-01-19T08:31:18.484Z,51.156132
2023-01-19T08:32:07.190Z,51.156143
2023-01-19T08:33:05.136Z,51.156124
2023-01-19T08:34:05.407Z,51.156120
2023-01-19T08:35:05.398Z,51.156116
2023-01-19T08:36:05.625Z,51.156124
2023-01-19T08:37:05.095Z,51.156132
2023-01-19T08:38:05.083Z,51.156120
2023-01-19T08:39:04.967Z,51.156132
2023-01-19T08:40:04.821Z,51.156120
2023-01-19T08:41:05.421Z,51.156155
2023-01-19T08:42:04.837Z,51.156155
2023-01-19T08:43:05.038Z,51.156151
2023-01-19T08:44:05.035Z,51.156139
2023-01-19T08:45:04.826Z,51.156128
2023-01-19T08:46:05.050Z,51.156120
2023-01-19T08:47:04.857Z,51.156120
2023-01-19T08:48:05.753Z,51.156120
2023-01-19T08:49:04.786Z,51.156113
2023-01-19T08:50:04.789Z,51.156139
2023-01-19T08:51:04.819Z,51.156120
2023-01-19T08:52:04.755Z,51.156136
2023-01-19T08:53:04.755Z,51.156132
2023-01-19T08:54:04.846Z,51.156128
2023-01-19T08:55:04.715Z,51.156109
2023-01-19T08:56:04.715Z,51.156128
2023-01-19T08:57:04.983Z,51.156139
2023-01-19T08:58:04.761Z,51.156143
2023-01-19T08:59:09.879Z,51.156147
2023-01-19T09:00:06.696Z,51.156166
2023-01-19T09:01:04.629Z,51.156136
2023-01-19T09:02:05.404Z,51.156132
2023-01-19T09:03:05.223Z,51.156120
2023-01-19T09:04:05.021Z,51.156170
2023-01-19T09:05:04.705Z,51.156132
2023-01-19T09:06:04.675Z,51.156162
2023-01-19T09:08:04.596Z,51.156109
2023-01-19T09:09:04.800Z,51.156090
2023-01-19T09:10:04.665Z,51.156101
2023-01-19T09:11:04.562Z,51.156128
2023-01-19T09:12:04.588Z,51.156162
2023-01-19T09:13:04.725Z,51.156136
2023-01-19T09:14:04.547Z,51.156136
2023-01-19T09:15:04.605Z,51.156155
2023-01-19T09:16:04.776Z,51.156158
2023-01-19T09:17:04.587Z,51.156162
2023-01-19T09:18:04.636Z,51.156151
2023-01-19T09:19:04.658Z,51.156158
2023-01-19T09:20:04.479Z,51.156105
2023-01-19T09:21:04.448Z,51.156116
2023-01-19T09:22:04.542Z,51.156174
2023-01-19T09:23:04.636Z,51.156151
2023-01-19T09:24:04.442Z,51.156147
2023-01-19T09:25:04.635Z,51.156136
2023-01-19T09:26:04.619Z,51.156136
2023-01-19T09:27:04.432Z,51.156105
2023-01-19T09:28:04.453Z,51.156128
2023-01-19T09:29:04.333Z,51.156136
2023-01-19T09:30:04.518Z,51.156143
2023-01-19T09:31:04.487Z,51.156151
2023-01-19T09:32:04.431Z,51.156124
2023-01-19T09:33:04.565Z,51.156109
2023-01-19T09:34:04.553Z,51.156124
2023-01-19T09:35:04.438Z,51.156120
2023-01-19T09:36:04.401Z,51.156105
2023-01-19T09:37:04.419Z,51.156113
2023-01-19T09:38:04.461Z,51.156109
2023-01-19T09:39:04.304Z,51.156109
2023-01-19T09:40:04.359Z,51.156120
2023-01-19T09:41:04.520Z,51.156109
2023-01-19T09:42:04.279Z,51.156094
2023-01-19T09:43:04.270Z,51.156094
2023-01-19T09:44:04.716Z,51.156109
2023-01-19T09:45:04.561Z,51.156136
2023-01-19T09:46:04.320Z,51.156128
2023-01-19T09:47:04.259Z,51.156124
2023-01-19T09:48:04.250Z,51.156109
2023-01-19T09:49:04.237Z,51.156101
2023-01-19T09:50:04.173Z,51.156124
2023-01-19T09:51:04.261Z,51.156086
2023-01-19T09:52:04.305Z,51.156052
2023-01-19T09:53:04.137Z,51.156097
2023-01-19T09:54:04.283Z,51.156082
2023-01-19T09:55:05.076Z,51.156071
2023-01-19T09:56:04.136Z,51.156082
2023-01-19T09:57:04.237Z,51.156017
2023-01-19T09:58:04.427Z,51.156063
2023-01-19T09:59:04.092Z,51.156101
2023-01-19T10:00:04.823Z,51.156120
2023-01-19T10:01:05.066Z,51.156116
2023-01-19T10:02:04.347Z,51.156067
2023-01-19T10:03:04.353Z,51.156116
2023-01-19T10:04:05.188Z,51.156101
2023-01-19T10:05:04.307Z,51.156116
2023-01-19T10:06:03.995Z,51.156036
2023-01-19T10:07:04.034Z,51.156082
2023-01-19T10:08:04.078Z,51.156059
2023-01-19T10:09:04.011Z,51.156094
2023-01-19T10:10:04.054Z,51.156055
2023-01-19T10:11:04.021Z,51.156124
2023-01-19T10:12:03.975Z,51.156094
2023-01-19T10:13:04.136Z,51.156097
2023-01-19T10:14:04.033Z,51.156033
2023-01-19T10:15:03.981Z,51.156075
2023-01-19T10:16:04.016Z,51.156097
2023-01-19T10:17:05.076Z,51.156094
2023-01-19T10:18:04.044Z,51.156097
2023-01-19T10:19:03.996Z,51.156055
2023-01-19T10:20:04.178Z,51.156036
2023-01-19T10:21:05.535Z,51.156048
2023-01-19T10:22:04.956Z,51.156063
2023-01-19T10:23:04.378Z,51.156021
2023-01-19T10:24:05.779Z,51.156094
2023-01-19T10:25:03.887Z,51.156086
2023-01-19T10:26:03.838Z,51.156120
2023-01-19T10:27:03.852Z,51.156109
2023-01-19T10:28:03.801Z,51.156105
2023-01-19T10:29:03.860Z,51.156021
2023-01-19T10:30:04.853Z,51.156071
2023-01-19T10:31:05.265Z,51.156116
2023-01-19T10:32:03.915Z,51.156170
2023-01-19T10:33:04.088Z,51.156166
2023-01-19T10:34:03.809Z,51.156181
2023-01-19T10:35:03.775Z,51.156151
2023-01-19T10:36:04.071Z,51.156105
2023-01-19T10:37:04.325Z,51.156178
2023-01-19T10:38:03.761Z,51.156170
2023-01-19T10:39:03.801Z,51.156109
2023-01-19T10:40:03.743Z,51.156097
2023-01-19T10:41:04.085Z,51.156116
2023-01-19T10:42:03.672Z,51.156075
2023-01-19T10:43:04.172Z,51.156105
2023-01-19T10:44:03.725Z,51.156082
2023-01-19T10:45:03.716Z,51.156090
2023-01-19T10:46:04.097Z,51.156078
2023-01-19T10:47:04.023Z,51.156048
2023-01-19T10:48:03.658Z,51.156063
2023-01-19T10:49:03.672Z,51.156067
2023-01-19T10:50:03.710Z,51.156017
2023-01-19T10:51:03.646Z,51.155983
2023-01-19T10:52:03.668Z,51.156021
2023-01-19T10:53:04.172Z,51.156040
2023-01-19T10:54:03.560Z,51.156052
2023-01-19T10:55:03.536Z,51.156055
2023-01-19T10:56:03.731Z,51.156059
2023-01-19T10:57:03.566Z,51.156067
2023-01-19T10:58:04.862Z,51.156044
2023-01-19T10:59:03.662Z,51.156048
2023-01-19T11:00:03.674Z,51.156025
2023-01-19T11:01:03.757Z,51.156063
2023-01-19T11:02:03.879Z,51.156075
2023-01-19T11:03:03.850Z,51.156075
2023-01-19T11:04:03.531Z,51.156086
2023-01-19T11:05:03.552Z,51.156086
2023-01-19T11:06:03.500Z,51.156082
2023-01-19T11:07:03.587Z,51.156101
2023-01-19T11:08:03.522Z,51.156097
2023-01-19T11:09:03.427Z,51.156094
2023-01-19T11:10:03.476Z,51.156094
2023-01-19T11:11:03.695Z,51.156094
2023-01-19T11:12:03.361Z,51.156105
2023-01-19T11:13:04.103Z,51.156078
2023-01-19T11:14:03.976Z,51.156109
2023-01-19T11:15:03.481Z,51.156090
2023-01-19T11:16:03.638Z,51.156116
2023-01-19T11:17:03.380Z,51.156097
2023-01-19T11:18:03.459Z,51.156113
2023-01-19T11:19:03.413Z,51.156101
2023-01-19T11:20:03.288Z,51.156097
2023-01-19T11:21:04.244Z,51.156113
2023-01-19T11:22:03.289Z,51.156078
2023-01-19T11:23:03.722Z,51.156113
2023-01-19T11:24:03.338Z,51.156124
2023-01-19T11:25:03.574Z,51.156078
2023-01-19T11:26:03.571Z,51.156082
2023-01-19T11:27:03.208Z,51.156082
2023-01-19T11:28:03.442Z,51.156097
2023-01-19T11:29:03.241Z,51.156094
2023-01-19T11:30:03.212Z,51.156094
2023-01-19T11:31:03.300Z,51.156078
2023-01-19T11:32:03.371Z,51.156094
2023-01-19T11:33:03.391Z,51.156101
2023-01-19T11:34:03.148Z,51.156109
2023-01-19T11:35:03.231Z,51.156136
2023-01-19T11:36:03.214Z,51.156136
2023-01-19T11:37:03.513Z,51.156136
2023-01-19T11:38:03.088Z,51.156120
2023-01-19T11:39:04.398Z,51.156094
2023-01-19T11:40:03.104Z,51.156120
2023-01-19T11:41:03.645Z,51.156113
2023-01-19T11:42:03.232Z,51.156101
2023-01-19T11:43:03.495Z,51.156090
2023-01-19T11:44:03.264Z,51.156086
2023-01-19T11:45:03.045Z,51.156109
2023-01-19T11:46:03.095Z,51.156094
2023-01-19T11:47:03.185Z,51.156090
2023-01-19T11:48:03.719Z,51.156094
2023-01-19T11:49:03.079Z,51.156128
2023-01-19T11:50:03.204Z,51.156143
2023-01-19T11:51:03.005Z,51.156120
2023-01-19T11:52:03.038Z,51.156166
2023-01-19T11:53:02.988Z,51.156132
2023-01-19T11:54:02.991Z,51.156132
2023-01-19T11:55:03.757Z,51.156174
2023-01-19T11:56:03.116Z,51.156116
2023-01-19T11:57:02.964Z,51.156136
2023-01-19T11:58:03.370Z,51.156139
2023-01-19T11:59:02.965Z,51.156105
2023-01-19T12:00:02.977Z,51.156116
2023-01-19T12:01:02.846Z,51.156105
2023-01-19T12:02:03.000Z,51.156136
2023-01-19T12:03:02.889Z,51.156124
2023-01-19T12:04:03.048Z,51.156094
2023-01-19T12:05:02.925Z,51.156086
2023-01-19T12:06:02.811Z,51.156101
2023-01-19T12:07:02.855Z,51.156101
2023-01-19T12:08:06.273Z,51.156071
2023-01-19T12:09:03.993Z,51.156120
2023-01-19T12:10:02.773Z,51.156178
2023-01-19T12:11:02.967Z,51.156197
2023-01-19T12:12:02.973Z,51.156136
2023-01-19T12:13:02.850Z,51.156120
2023-01-19T12:14:04.034Z,51.156044
2023-01-19T12:15:03.361Z,51.156078
2023-01-19T12:16:02.947Z,51.156067
2023-01-19T12:17:02.796Z,51.156094
2023-01-19T12:18:03.597Z,51.156090
2023-01-19T12:19:02.708Z,51.156128
2023-01-19T12:20:02.990Z,51.156170
2023-01-19T12:21:04.343Z,51.156128
2023-01-19T12:22:03.663Z,51.156124
2023-01-19T12:23:02.662Z,51.156090
2023-01-19T12:24:02.835Z,51.156124
2023-01-19T12:25:03.774Z,51.156155
2023-01-19T12:26:02.655Z,51.156132
2023-01-19T12:27:03.185Z,51.156124
2023-01-19T12:28:02.942Z,51.156162
2023-01-19T12:29:02.653Z,51.156124
2023-01-19T12:30:02.668Z,51.156151
2023-01-19T12:31:02.716Z,51.156109
2023-01-19T12:32:02.730Z,51.156128
2023-01-19T12:33:02.710Z,51.156063
2023-01-19T12:34:02.856Z,51.156094
2023-01-19T12:35:02.677Z,51.156116
2023-01-19T12:36:02.670Z,51.156147
2023-01-19T12:37:03.280Z,51.156136
2023-01-19T12:38:02.467Z,51.156136
2023-01-19T12:39:02.592Z,51.156128
2023-01-19T12:40:02.565Z,51.156109
2023-01-19T12:41:02.854Z,51.156128
2023-01-19T12:42:02.622Z,51.156162
2023-01-19T12:43:02.565Z,51.156128
2023-01-19T12:44:03.033Z,51.156128
2023-01-19T12:45:02.508Z,51.156097
2023-01-19T12:47:29.776Z,51.156132
2023-01-19T12:47:31.530Z,51.156132
2023-01-19T12:48:31.478Z,51.156124
2023-01-19T12:49:33.359Z,51.156109
2023-01-19T12:50:31.734Z,51.156105
2023-01-19T12:51:31.471Z,51.156155
2023-01-19T12:52:31.445Z,51.156155
2023-01-19T12:53:31.381Z,51.156170
2023-01-19T12:54:31.577Z,51.156143
2023-01-19T12:55:31.607Z,51.156109
2023-01-19T12:56:46.712Z,51.156158
2023-01-19T12:57:32.394Z,51.156147
2023-01-19T12:58:31.548Z,51.156132
2023-01-19T12:59:32.035Z,51.156151
2023-01-19T13:00:31.329Z,51.156136
2023-01-19T13:01:36.981Z,51.156116
2023-01-19T13:02:31.353Z,51.156120
2023-01-19T13:03:31.346Z,51.156124
2023-01-19T13:04:33.436Z,51.156139
2023-01-19T13:05:34.309Z,51.156109
2023-01-19T13:06:32.235Z,51.156101
2023-01-19T13:07:31.508Z,51.156105
2023-01-19T13:08:31.293Z,51.156086
2023-01-19T13:09:31.221Z,51.156101
2023-01-19T13:10:32.284Z,51.156101
2023-01-19T13:11:34.607Z,51.156189
2023-01-19T13:12:32.371Z,51.156109
2023-01-19T13:13:31.259Z,51.156128
2023-01-19T13:14:41.241Z,51.156136
2023-01-19T13:15:32.655Z,51.156105
2023-01-19T13:16:31.662Z,51.156105
2023-01-19T13:17:31.512Z,51.156109
2023-01-19T13:18:31.683Z,51.156132
2023-01-19T13:19:31.128Z,51.156101
2023-01-19T13:20:31.304Z,51.156097
2023-01-19T13:21:32.351Z,51.156151
2023-01-19T13:22:34.315Z,51.156151
2023-01-19T13:23:31.327Z,51.156151
2023-01-19T13:24:31.366Z,51.156113
2023-01-19T13:26:52.400Z,51.156113
2023-01-19T13:26:54.275Z,51.156113
2023-01-19T13:27:54.118Z,51.156086
2023-01-19T13:28:54.859Z,51.156094
2023-01-19T13:29:54.086Z,51.156090
2023-01-19T13:30:54.662Z,51.156097
2023-01-19T13:31:55.416Z,51.156094
2023-01-19T13:32:57.581Z,51.156075
2023-01-19T13:33:54.180Z,51.156036
2023-01-19T13:34:56.685Z,51.156059
2023-01-19T13:35:54.070Z,51.156067
2023-01-19T13:40:08.904Z,51.156033
2023-01-19T13:41:19.279Z,51.156120
2023-01-19T13:42:08.179Z,51.156078
2023-01-19T13:44:31.960Z,51.156086
2023-01-19T13:45:55.770Z,51.156086
2023-01-19T13:46:00.430Z,51.156086
2023-01-19T13:47:00.444Z,51.156086
2023-01-19T13:49:27.419Z,51.156063
2023-01-19T13:49:29.413Z,51.156063
2023-01-19T13:50:38.251Z,51.156128
2023-01-19T13:51:30.072Z,51.156109
2023-01-19T13:52:33.366Z,51.156078
2023-01-19T13:53:29.818Z,51.156109
2023-01-19T13:54:31.118Z,51.156147
2023-01-19T13:55:38.111Z,51.156059
2023-01-19T13:56:30.502Z,51.156086
2023-01-19T13:57:30.293Z,51.156055
2023-01-19T13:58:29.140Z,51.156040
2023-01-19T14:01:47.200Z,51.156078
2023-01-19T14:01:54.149Z,51.156078
2023-01-19T14:04:25.485Z,51.156094
2023-01-19T14:04:27.814Z,51.156094
2023-01-19T14:05:29.528Z,51.156067
2023-01-19T14:06:28.674Z,51.156086
2023-01-19T14:07:37.985Z,51.156075
2023-01-19T14:08:29.167Z,51.156120
2023-01-19T14:09:31.451Z,51.156082
2023-01-19T14:10:37.891Z,51.156063
2023-01-19T14:11:29.696Z,51.156071
2023-01-19T14:17:17.547Z,51.156082
2023-01-19T14:17:26.815Z,51.156082
2023-01-19T14:18:32.829Z,51.156067
2023-01-19T14:20:59.225Z,51.156036
2023-01-19T14:21:42.437Z,51.156036
2023-01-19T14:25:15.450Z,51.156094
2023-01-19T14:26:16.018Z,51.156082
2023-01-19T14:27:15.373Z,51.156052
2023-01-19T14:28:15.666Z,51.156002
2023-01-19T14:29:15.329Z,51.155994
2023-01-19T14:30:15.579Z,51.155994
2023-01-19T14:31:15.575Z,51.156006
2023-01-19T14:32:15.426Z,51.156048
2023-01-19T14:33:15.684Z,51.156052
2023-01-19T14:34:15.421Z,51.156036
2023-01-19T14:35:15.428Z,51.156067
2023-01-19T14:36:17.673Z,51.156075
2023-01-19T14:37:16.421Z,51.156063
2023-01-19T14:38:16.160Z,51.156059
2023-01-19T14:39:15.488Z,51.156033
2023-01-19T14:40:15.515Z,51.156067
2023-01-19T14:41:15.402Z,51.156059
2023-01-19T14:42:17.433Z,51.156025
2023-01-19T14:43:15.133Z,51.156063
2023-01-19T14:44:15.212Z,51.156071
2023-01-19T14:45:16.096Z,51.156052
2023-01-19T14:46:15.488Z,51.156055
2023-01-19T14:47:15.166Z,51.156101
2023-01-19T14:48:17.863Z,51.156063
2023-01-19T14:49:17.348Z,51.156105
2023-01-19T14:50:15.105Z,51.156105
2023-01-19T14:51:15.360Z,51.156105
2023-01-19T14:52:15.097Z,51.156109
2023-01-19T14:53:15.291Z,51.156090
2023-01-19T14:54:15.076Z,51.156067
2023-01-19T14:55:15.081Z,51.156075
2023-01-19T14:56:16.075Z,51.156067
2023-01-19T14:57:15.016Z,51.156078
2023-01-19T14:58:15.416Z,51.156059
2023-01-19T14:59:15.102Z,51.156063
2023-01-19T15:00:17.299Z,51.156067
2023-01-19T15:05:20.353Z,51.156147
2023-01-19T15:06:21.284Z,51.156097
2023-01-19T15:07:20.065Z,51.156094
2023-01-19T15:08:20.120Z,51.156078
2023-01-19T15:09:20.013Z,51.156071
2023-01-19T15:10:20.054Z,51.156075
2023-01-19T15:11:20.061Z,51.156078
2023-01-19T15:12:19.933Z,51.156071
2023-01-19T15:13:20.090Z,51.156097
2023-01-19T15:14:19.935Z,51.156086
2023-01-19T15:15:20.006Z,51.156094
2023-01-19T15:16:20.056Z,51.156063
2023-01-19T15:17:19.936Z,51.156071
2023-01-19T15:18:19.908Z,51.156063
2023-01-19T15:19:19.971Z,51.156082
2023-01-19T15:20:19.940Z,51.156086
2023-01-19T15:21:19.913Z,51.156101
2023-01-19T15:22:19.842Z,51.156090
2023-01-19T15:23:19.868Z,51.156120
2023-01-19T15:24:19.909Z,51.156075
2023-01-19T15:25:19.870Z,51.156021
2023-01-19T15:26:19.814Z,51.156025
2023-01-19T15:27:19.811Z,51.156063
2023-01-19T15:28:19.842Z,51.156063
2023-01-19T15:29:19.815Z,51.156059
2023-01-19T15:30:19.906Z,51.156139
2023-01-19T15:31:19.825Z,51.156162
2023-01-19T15:32:19.774Z,51.156078
2023-01-19T15:33:19.761Z,51.156109
2023-01-19T15:34:19.749Z,51.156071
2023-01-19T15:35:19.809Z,51.155819
2023-01-19T15:36:19.780Z,51.155960
2023-01-19T15:37:19.744Z,51.156101
2023-01-19T15:38:19.750Z,51.156101
2023-01-19T15:39:19.724Z,51.156113
2023-01-19T15:40:19.776Z,51.156036
2023-01-19T15:41:21.843Z,51.156036
2023-01-19T15:42:19.739Z,51.156013
2023-01-19T15:43:19.739Z,51.156010
2023-01-19T15:44:19.675Z,51.156139
2023-01-19T15:45:19.761Z,51.156078
2023-01-19T15:46:19.683Z,51.156105
2023-01-19T15:47:19.640Z,51.156166
2023-01-19T15:48:19.670Z,51.156025
2023-01-19T15:49:19.666Z,51.156075
2023-01-19T15:50:19.688Z,51.156120
2023-01-19T15:51:19.601Z,51.156162
2023-01-19T15:52:19.647Z,51.155991
2023-01-19T15:53:19.580Z,51.156002
2023-01-19T15:54:20.627Z,51.156010
2023-01-19T15:55:19.615Z,51.156025
2023-01-19T15:56:19.571Z,51.156055
2023-01-19T15:57:19.536Z,51.156052
2023-01-19T15:58:19.573Z,51.156040
2023-01-19T15:59:19.574Z,51.156128
2023-01-19T16:00:19.541Z,51.156158
2023-01-19T16:01:19.776Z,51.156067
2023-01-19T16:02:19.702Z,51.156048
2023-01-19T16:03:19.577Z,51.156101
2023-01-19T16:04:19.508Z,51.156090
2023-01-19T16:05:19.516Z,51.156040
2023-01-19T16:06:19.481Z,51.156063
2023-01-19T16:07:19.502Z,51.156071
2023-01-19T16:08:19.472Z,51.156048
2023-01-19T16:09:19.428Z,51.156174
2023-01-19T16:10:19.426Z,51.155994
2023-01-19T16:11:19.380Z,51.156128
2023-01-19T16:12:19.391Z,51.156105
2023-01-19T16:13:19.422Z,51.156086
2023-01-19T16:14:19.355Z,51.156082
2023-01-19T16:15:19.419Z,51.156109
2023-01-19T16:16:19.362Z,51.156040
2023-01-19T16:17:19.305Z,51.156097
2023-01-19T16:18:19.333Z,51.155964
2023-01-19T16:19:19.335Z,51.155998
2023-01-19T16:20:19.304Z,51.155983
2023-01-19T16:21:19.300Z,51.156040
2023-01-19T16:22:19.936Z,51.156094
2023-01-19T16:23:19.350Z,51.156116
2023-01-19T16:24:19.389Z,51.156040
2023-01-19T16:25:19.268Z,51.156033
2023-01-19T16:26:19.289Z,51.156021
2023-01-19T16:27:19.248Z,51.156010
2023-01-19T16:28:19.226Z,51.156029
2023-01-19T16:29:19.328Z,51.156017
2023-01-19T16:30:19.318Z,51.155979
2023-01-19T16:31:19.368Z,51.156044
2023-01-19T16:32:19.293Z,51.156048
2023-01-19T16:33:19.359Z,51.156036
2023-01-19T16:34:19.223Z,51.156059
2023-01-19T16:35:19.235Z,51.155998
2023-01-19T16:36:19.350Z,51.156025
2023-01-19T16:37:19.294Z,51.156021
2023-01-19T16:38:19.540Z,51.155983
2023-01-19T16:39:19.324Z,51.156040
2023-01-19T16:40:19.290Z,51.155987
2023-01-19T16:41:19.404Z,51.156025
2023-01-19T16:42:19.240Z,51.156040
2023-01-19T16:43:19.258Z,51.156055
2023-01-19T16:44:19.337Z,51.156052
2023-01-19T16:45:19.406Z,51.155975
2023-01-19T16:46:22.406Z,51.155998
2023-01-19T16:48:40.256Z,51.156017
2023-01-19T16:48:42.755Z,51.156017
2023-01-19T16:49:42.057Z,51.156052
2023-01-19T16:50:42.127Z,51.156075
2023-01-19T16:51:42.091Z,51.156044
2023-01-19T16:52:42.058Z,51.156033
2023-01-19T16:53:42.226Z,51.156044
2023-01-19T16:54:42.277Z,51.156052
2023-01-19T16:55:42.136Z,51.156055
2023-01-19T16:56:42.078Z,51.156078
2023-01-19T16:57:42.095Z,51.156033
2023-01-19T16:58:42.027Z,51.155987
2023-01-19T16:59:41.954Z,51.156006
2023-01-19T17:00:42.012Z,51.156033
2023-01-19T17:01:42.152Z,51.156013
2023-01-19T17:02:42.086Z,51.156033
2023-01-19T17:03:42.047Z,51.156025
2023-01-19T17:04:42.389Z,51.156052
2023-01-19T17:05:42.120Z,51.156021
2023-01-19T17:06:41.896Z,51.156059
2023-01-19T17:07:42.841Z,51.156075
2023-01-19T17:08:41.964Z,51.156033
2023-01-19T17:09:42.150Z,51.156082
2023-01-19T17:10:41.915Z,51.156067
2023-01-19T17:11:41.841Z,51.156059
2023-01-19T17:12:41.869Z,51.156075
2023-01-19T17:13:42.154Z,51.156055
2023-01-19T17:14:42.170Z,51.156097
2023-01-19T17:15:42.022Z,51.156044
2023-01-19T17:16:41.947Z,51.156040
2023-01-19T17:17:41.970Z,51.156033
2023-01-19T17:18:41.886Z,51.156086
2023-01-19T17:19:41.826Z,51.156048
2023-01-19T17:20:41.842Z,51.156071
2023-01-19T17:21:42.554Z,51.156055
2023-01-19T17:22:41.689Z,51.156071
2023-01-19T17:23:42.566Z,51.156090
2023-01-19T17:24:42.032Z,51.156113
2023-01-19T17:25:45.547Z,51.156105
2023-01-19T17:26:41.654Z,51.156086
2023-01-19T17:27:41.591Z,51.156086
2023-01-19T17:28:45.344Z,51.156094
2023-01-19T17:29:42.487Z,51.156094
2023-01-19T17:30:41.682Z,51.156055
2023-01-19T17:31:42.908Z,51.156116
2023-01-19T17:32:42.798Z,51.156124
2023-01-19T17:33:41.615Z,51.156128
2023-01-19T17:34:41.584Z,51.156101
2023-01-19T17:35:42.337Z,51.156082
2023-01-19T17:36:42.509Z,51.156075
2023-01-19T17:37:41.604Z,51.156090
2023-01-19T17:38:42.471Z,51.156105
2023-01-19T17:39:42.486Z,51.156116
2023-01-19T17:40:43.054Z,51.156120
2023-01-19T17:41:41.494Z,51.156116
2023-01-19T17:42:41.478Z,51.156109
2023-01-19T17:43:41.409Z,51.156101
2023-01-19T17:44:41.404Z,51.156113
2023-01-19T17:45:41.569Z,51.156094
2023-01-19T17:46:42.518Z,51.156059
2023-01-19T17:47:41.563Z,51.156063
2023-01-19T17:48:41.593Z,51.156071
2023-01-19T17:49:41.391Z,51.156094
2023-01-19T17:50:41.585Z,51.156036
2023-01-19T17:51:41.411Z,51.156040
2023-01-19T17:52:41.536Z,51.156059
2023-01-19T17:53:41.542Z,51.156082
2023-01-19T17:54:41.375Z,51.156094
2023-01-19T17:55:41.473Z,51.156082
2023-01-19T17:56:41.594Z,51.156075
2023-01-19T17:57:42.383Z,51.156071
2023-01-19T17:58:41.348Z,51.156082
2023-01-19T17:59:41.354Z,51.156094
2023-01-19T18:00:42.032Z,51.156071
2023-01-19T18:01:41.967Z,51.156113
2023-01-19T18:02:41.681Z,51.156105
2023-01-19T18:03:41.321Z,51.156120
2023-01-19T18:04:41.323Z,51.156063
2023-01-19T18:05:42.347Z,51.156071
2023-01-19T18:06:41.229Z,51.156120
2023-01-19T18:07:41.244Z,51.156128
2023-01-19T18:08:41.191Z,51.156147
2023-01-19T18:09:41.449Z,51.156086
2023-01-19T18:10:41.212Z,51.156063
2023-01-19T18:11:41.557Z,51.156078
2023-01-19T18:12:41.192Z,51.156078
2023-01-19T18:13:41.230Z,51.156082
2023-01-19T18:14:41.145Z,51.156105
2023-01-19T18:15:41.220Z,51.156090
2023-01-19T18:16:41.313Z,51.156078
2023-01-19T18:17:41.260Z,51.156071
2023-01-19T18:18:42.100Z,51.156017
2023-01-19T18:19:41.167Z,51.156040
2023-01-19T18:20:41.540Z,51.156063
2023-01-19T18:21:41.865Z,51.156075
2023-01-19T18:22:41.142Z,51.156101
2023-01-19T18:23:41.261Z,51.156075
2023-01-19T18:24:41.207Z,51.156105
2023-01-19T18:25:41.100Z,51.156143
2023-01-19T18:26:41.291Z,51.156071
2023-01-19T18:27:41.819Z,51.156078
2023-01-19T18:28:41.330Z,51.156075
2023-01-19T18:29:41.112Z,51.156071
2023-01-19T18:30:41.240Z,51.155983
2023-01-19T18:31:41.136Z,51.156040
2023-01-19T18:32:41.007Z,51.156055
2023-01-19T18:33:41.892Z,51.156090